sensor_id;sensor_type;location;lat;lon;timestamp;temperature;humidity
72440;DHT22;60446;50.752;4.352;2023-02-01T00:01:55;5.60;88.30
72440;DHT22;60446;50.752;4.352;2023-02-01T00:04:23;5.60;88.20
72440;DHT22;60446;50.752;4.352;2023-02-01T00:07:17;5.60;88.10
72440;DHT22;60446;50.752;4.352;2023-02-01T00:09:51;5.60;88.10
72440;DHT22;60446;50.752;4.352;2023-02-01T00:12:24;5.60;88.10
72440;DHT22;60446;50.752;4.352;2023-02-01T00:14:52;5.60;88.10
72440;DHT22;60446;50.752;4.352;2023-02-01T00:17:26;5.60;88.00
72440;DHT22;60446;50.752;4.352;2023-02-01T00:20:28;5.70;87.90
72440;DHT22;60446;50.752;4.352;2023-02-01T00:23:04;5.70;87.70
72440;DHT22;60446;50.752;4.352;2023-02-01T00:29:14;5.60;87.40
72440;DHT22;60446;50.752;4.352;2023-02-01T00:32:04;5.50;87.60
72440;DHT22;60446;50.752;4.352;2023-02-01T00:34:47;5.50;87.40
72440;DHT22;60446;50.752;4.352;2023-02-01T00:37:45;5.50;87.30
72440;DHT22;60446;50.752;4.352;2023-02-01T00:40:19;5.40;87.20
72440;DHT22;60446;50.752;4.352;2023-02-01T00:43:14;5.40;87.30
72440;DHT22;60446;50.752;4.352;2023-02-01T00:45:47;5.40;87.10
72440;DHT22;60446;50.752;4.352;2023-02-01T00:48:28;5.30;87.00
72440;DHT22;60446;50.752;4.352;2023-02-01T00:51:34;5.30;87.00
72440;DHT22;60446;50.752;4.352;2023-02-01T00:54:06;5.30;86.30
72440;DHT22;60446;50.752;4.352;2023-02-01T00:56:56;5.30;86.20
72440;DHT22;60446;50.752;4.352;2023-02-01T00:59:27;5.30;86.20
72440;DHT22;60446;50.752;4.352;2023-02-01T01:02:01;5.30;86.10
72440;DHT22;60446;50.752;4.352;2023-02-01T01:04:49;5.20;86.10
72440;DHT22;60446;50.752;4.352;2023-02-01T01:07:21;5.20;86.30
72440;DHT22;60446;50.752;4.352;2023-02-01T01:10:05;5.30;86.30
72440;DHT22;60446;50.752;4.352;2023-02-01T01:13:00;5.30;86.00
72440;DHT22;60446;50.752;4.352;2023-02-01T01:15:38;5.30;85.50
72440;DHT22;60446;50.752;4.352;2023-02-01T01:18:24;5.30;85.50
72440;DHT22;60446;50.752;4.352;2023-02-01T01:20:51;5.20;84.80
72440;DHT22;60446;50.752;4.352;2023-02-01T01:23:30;5.20;84.40
72440;DHT22;60446;50.752;4.352;2023-02-01T01:25:58;5.20;84.30
72440;DHT22;60446;50.752;4.352;2023-02-01T01:28:26;5.20;84.00
72440;DHT22;60446;50.752;4.352;2023-02-01T01:30:58;5.10;83.70
72440;DHT22;60446;50.752;4.352;2023-02-01T01:34:01;5.10;82.90
72440;DHT22;60446;50.752;4.352;2023-02-01T01:36:43;5.10;82.50
72440;DHT22;60446;50.752;4.352;2023-02-01T01:39:18;5.20;81.60
72440;DHT22;60446;50.752;4.352;2023-02-01T01:41:52;5.20;82.00
72440;DHT22;60446;50.752;4.352;2023-02-01T01:47:46;5.20;81.80
72440;DHT22;60446;50.752;4.352;2023-02-01T01:50:30;5.20;81.60
72440;DHT22;60446;50.752;4.352;2023-02-01T01:54:07;5.20;81.30
72440;DHT22;60446;50.752;4.352;2023-02-01T01:56:55;5.20;80.70
72440;DHT22;60446;50.752;4.352;2023-02-01T01:59:38;5.20;81.20
72440;DHT22;60446;50.752;4.352;2023-02-01T02:02:18;5.20;79.50
72440;DHT22;60446;50.752;4.352;2023-02-01T02:05:00;5.20;80.50
72440;DHT22;60446;50.752;4.352;2023-02-01T02:07:40;5.20;80.50
72440;DHT22;60446;50.752;4.352;2023-02-01T02:10:16;5.20;80.80
72440;DHT22;60446;50.752;4.352;2023-02-01T02:12:58;5.20;79.80
72440;DHT22;60446;50.752;4.352;2023-02-01T02:37:46;5.30;78.30
72440;DHT22;60446;50.752;4.352;2023-02-01T02:43:46;5.30;79.40
72440;DHT22;60446;50.752;4.352;2023-02-01T02:46:47;5.30;78.90
72440;DHT22;60446;50.752;4.352;2023-02-01T02:49:54;5.30;78.30
72440;DHT22;60446;50.752;4.352;2023-02-01T02:52:57;5.30;78.20
72440;DHT22;60446;50.752;4.352;2023-02-01T02:55:50;5.30;77.80
72440;DHT22;60446;50.752;4.352;2023-02-01T02:58:19;5.30;77.50
72440;DHT22;60446;50.752;4.352;2023-02-01T03:01:07;5.30;77.20
72440;DHT22;60446;50.752;4.352;2023-02-01T03:03:53;5.30;77.00
72440;DHT22;60446;50.752;4.352;2023-02-01T03:06:38;5.30;76.80
72440;DHT22;60446;50.752;4.352;2023-02-01T03:09:33;5.20;77.20
72440;DHT22;60446;50.752;4.352;2023-02-01T03:12:06;5.10;77.40
72440;DHT22;60446;50.752;4.352;2023-02-01T03:14:59;5.00;76.10
72440;DHT22;60446;50.752;4.352;2023-02-01T03:17:34;5.00;76.20
72440;DHT22;60446;50.752;4.352;2023-02-01T03:20:08;4.90;76.40
72440;DHT22;60446;50.752;4.352;2023-02-01T03:22:39;4.90;75.90
72440;DHT22;60446;50.752;4.352;2023-02-01T03:25:15;4.80;76.60
72440;DHT22;60446;50.752;4.352;2023-02-01T03:28:01;4.70;76.70
72440;DHT22;60446;50.752;4.352;2023-02-01T03:30:43;4.60;76.80
72440;DHT22;60446;50.752;4.352;2023-02-01T03:33:17;4.60;77.30
72440;DHT22;60446;50.752;4.352;2023-02-01T03:39:34;4.50;77.50
72440;DHT22;60446;50.752;4.352;2023-02-01T03:41:55;4.40;77.50
72440;DHT22;60446;50.752;4.352;2023-02-01T03:44:41;4.30;77.70
72440;DHT22;60446;50.752;4.352;2023-02-01T03:47:24;4.30;77.00
72440;DHT22;60446;50.752;4.352;2023-02-01T03:50:05;4.40;76.60
72440;DHT22;60446;50.752;4.352;2023-02-01T03:52:50;4.40;77.20
72440;DHT22;60446;50.752;4.352;2023-02-01T03:55:22;4.30;76.70
72440;DHT22;60446;50.752;4.352;2023-02-01T03:57:56;4.30;76.90
72440;DHT22;60446;50.752;4.352;2023-02-01T04:00:26;4.20;77.40
72440;DHT22;60446;50.752;4.352;2023-02-01T04:02:56;4.20;76.80
72440;DHT22;60446;50.752;4.352;2023-02-01T04:05:23;4.20;76.60
72440;DHT22;60446;50.752;4.352;2023-02-01T04:08:01;4.20;77.40
72440;DHT22;60446;50.752;4.352;2023-02-01T04:10:28;4.10;77.00
72440;DHT22;60446;50.752;4.352;2023-02-01T04:12:55;4.10;77.20
72440;DHT22;60446;50.752;4.352;2023-02-01T04:15:23;4.00;77.10
72440;DHT22;60446;50.752;4.352;2023-02-01T04:17:50;4.00;77.20
72440;DHT22;60446;50.752;4.352;2023-02-01T04:20:24;4.00;76.80
72440;DHT22;60446;50.752;4.352;2023-02-01T04:23:12;4.00;77.60
72440;DHT22;60446;50.752;4.352;2023-02-01T04:26:05;3.90;77.40
72440;DHT22;60446;50.752;4.352;2023-02-01T04:29:00;3.90;77.10
72440;DHT22;60446;50.752;4.352;2023-02-01T04:31:43;3.90;76.90
72440;DHT22;60446;50.752;4.352;2023-02-01T04:34:21;3.90;77.00
72440;DHT22;60446;50.752;4.352;2023-02-01T04:37:03;3.80;76.90
72440;DHT22;60446;50.752;4.352;2023-02-01T04:39:43;3.80;77.00
72440;DHT22;60446;50.752;4.352;2023-02-01T04:42:20;3.80;77.30
72440;DHT22;60446;50.752;4.352;2023-02-01T04:45:06;3.70;77.30
72440;DHT22;60446;50.752;4.352;2023-02-01T04:47:50;3.70;77.20
72440;DHT22;60446;50.752;4.352;2023-02-01T04:50:25;3.70;77.30
72440;DHT22;60446;50.752;4.352;2023-02-01T04:52:56;3.60;77.30
72440;DHT22;60446;50.752;4.352;2023-02-01T04:55:30;3.60;77.80
72440;DHT22;60446;50.752;4.352;2023-02-01T04:58:17;3.60;77.60
72440;DHT22;60446;50.752;4.352;2023-02-01T05:00:56;3.50;77.80
72440;DHT22;60446;50.752;4.352;2023-02-01T05:03:30;3.50;78.00
72440;DHT22;60446;50.752;4.352;2023-02-01T05:06:21;3.50;78.00
72440;DHT22;60446;50.752;4.352;2023-02-01T05:09:16;3.50;77.80
72440;DHT22;60446;50.752;4.352;2023-02-01T05:11:59;3.40;78.20
72440;DHT22;60446;50.752;4.352;2023-02-01T05:14:54;3.30;78.40
72440;DHT22;60446;50.752;4.352;2023-02-01T05:17:42;3.30;78.50
72440;DHT22;60446;50.752;4.352;2023-02-01T05:20:33;3.20;78.60
72440;DHT22;60446;50.752;4.352;2023-02-01T05:23:22;3.20;78.80
72440;DHT22;60446;50.752;4.352;2023-02-01T05:26:00;3.10;79.00
72440;DHT22;60446;50.752;4.352;2023-02-01T05:28:41;3.10;79.00
72440;DHT22;60446;50.752;4.352;2023-02-01T05:31:11;3.10;79.20
72440;DHT22;60446;50.752;4.352;2023-02-01T05:33:51;3.00;79.10
72440;DHT22;60446;50.752;4.352;2023-02-01T05:36:26;3.00;79.40
72440;DHT22;60446;50.752;4.352;2023-02-01T05:38:56;3.00;79.50
72440;DHT22;60446;50.752;4.352;2023-02-01T05:41:43;2.90;79.60
72440;DHT22;60446;50.752;4.352;2023-02-01T05:44:37;2.90;79.80
72440;DHT22;60446;50.752;4.352;2023-02-01T05:47:13;3.00;79.70
72440;DHT22;60446;50.752;4.352;2023-02-01T05:49:48;3.00;79.40
72440;DHT22;60446;50.752;4.352;2023-02-01T05:52:30;3.00;79.50
72440;DHT22;60446;50.752;4.352;2023-02-01T05:55:03;3.00;79.10
72440;DHT22;60446;50.752;4.352;2023-02-01T05:57:33;3.00;79.10
72440;DHT22;60446;50.752;4.352;2023-02-01T06:00:03;3.00;79.20
72440;DHT22;60446;50.752;4.352;2023-02-01T06:02:43;3.00;79.10
72440;DHT22;60446;50.752;4.352;2023-02-01T06:05:21;3.00;78.90
72440;DHT22;60446;50.752;4.352;2023-02-01T06:08:09;3.00;79.10
72440;DHT22;60446;50.752;4.352;2023-02-01T06:11:09;3.00;79.10
72440;DHT22;60446;50.752;4.352;2023-02-01T06:14:00;2.90;79.40
72440;DHT22;60446;50.752;4.352;2023-02-01T06:16:28;2.90;79.50
72440;DHT22;60446;50.752;4.352;2023-02-01T06:19:27;2.90;79.70
72440;DHT22;60446;50.752;4.352;2023-02-01T06:22:10;2.80;79.80
72440;DHT22;60446;50.752;4.352;2023-02-01T06:24:40;2.90;79.50
72440;DHT22;60446;50.752;4.352;2023-02-01T06:27:17;2.80;79.70
72440;DHT22;60446;50.752;4.352;2023-02-01T06:30:05;2.70;80.10
72440;DHT22;60446;50.752;4.352;2023-02-01T06:32:50;2.80;80.20
72440;DHT22;60446;50.752;4.352;2023-02-01T06:35:40;2.70;80.20
72440;DHT22;60446;50.752;4.352;2023-02-01T06:42:04;2.60;80.50
72440;DHT22;60446;50.752;4.352;2023-02-01T06:45:27;2.60;80.80
72440;DHT22;60446;50.752;4.352;2023-02-01T06:48:57;2.60;80.70
72440;DHT22;60446;50.752;4.352;2023-02-01T06:52:09;2.50;80.70
72440;DHT22;60446;50.752;4.352;2023-02-01T06:55:01;2.60;80.80
72440;DHT22;60446;50.752;4.352;2023-02-01T06:57:57;2.50;80.80
72440;DHT22;60446;50.752;4.352;2023-02-01T07:00:32;2.40;81.30
72440;DHT22;60446;50.752;4.352;2023-02-01T07:03:22;2.40;81.40
72440;DHT22;60446;50.752;4.352;2023-02-01T07:06:00;2.40;81.40
72440;DHT22;60446;50.752;4.352;2023-02-01T07:08:43;2.50;81.40
72440;DHT22;60446;50.752;4.352;2023-02-01T07:11:14;2.40;81.20
72440;DHT22;60446;50.752;4.352;2023-02-01T07:14:00;2.40;81.40
72440;DHT22;60446;50.752;4.352;2023-02-01T07:16:27;2.40;81.30
72440;DHT22;60446;50.752;4.352;2023-02-01T07:19:04;2.50;81.40
72440;DHT22;60446;50.752;4.352;2023-02-01T07:21:32;2.40;81.40
72440;DHT22;60446;50.752;4.352;2023-02-01T07:24:03;2.40;81.40
72440;DHT22;60446;50.752;4.352;2023-02-01T07:26:30;2.40;81.40
72440;DHT22;60446;50.752;4.352;2023-02-01T07:28:58;2.50;81.40
72440;DHT22;60446;50.752;4.352;2023-02-01T07:31:25;2.50;81.30
72440;DHT22;60446;50.752;4.352;2023-02-01T07:33:53;2.50;81.40
72440;DHT22;60446;50.752;4.352;2023-02-01T07:36:21;2.40;81.40
72440;DHT22;60446;50.752;4.352;2023-02-01T07:38:49;2.40;81.50
72440;DHT22;60446;50.752;4.352;2023-02-01T07:41:17;2.40;81.70
72440;DHT22;60446;50.752;4.352;2023-02-01T07:43:44;2.40;81.60
72440;DHT22;60446;50.752;4.352;2023-02-01T07:46:12;2.40;81.80
72440;DHT22;60446;50.752;4.352;2023-02-01T07:48:39;2.50;81.70
72440;DHT22;60446;50.752;4.352;2023-02-01T07:51:10;2.50;81.60
72440;DHT22;60446;50.752;4.352;2023-02-01T07:53:39;2.50;81.60
72440;DHT22;60446;50.752;4.352;2023-02-01T07:56:12;2.40;81.80
72440;DHT22;60446;50.752;4.352;2023-02-01T07:58:49;2.50;82.00
72440;DHT22;60446;50.752;4.352;2023-02-01T08:01:24;2.60;82.00
72440;DHT22;60446;50.752;4.352;2023-02-01T08:06:31;2.80;82.00
72440;DHT22;60446;50.752;4.352;2023-02-01T08:08:59;2.90;81.40
72440;DHT22;60446;50.752;4.352;2023-02-01T08:11:26;3.10;81.20
72440;DHT22;60446;50.752;4.352;2023-02-01T08:13:53;3.10;80.50
72440;DHT22;60446;50.752;4.352;2023-02-01T08:16:22;3.20;80.40
72440;DHT22;60446;50.752;4.352;2023-02-01T08:18:50;3.20;80.10
72440;DHT22;60446;50.752;4.352;2023-02-01T08:21:20;3.30;80.20
72440;DHT22;60446;50.752;4.352;2023-02-01T08:23:49;3.30;80.50
72440;DHT22;60446;50.752;4.352;2023-02-01T08:26:25;3.40;80.10
72440;DHT22;60446;50.752;4.352;2023-02-01T08:28:55;3.40;80.00
72440;DHT22;60446;50.752;4.352;2023-02-01T08:31:26;3.40;79.90
72440;DHT22;60446;50.752;4.352;2023-02-01T08:33:57;3.50;79.70
72440;DHT22;60446;50.752;4.352;2023-02-01T08:36:28;3.50;79.60
72440;DHT22;60446;50.752;4.352;2023-02-01T08:38:56;3.50;79.90
72440;DHT22;60446;50.752;4.352;2023-02-01T08:41:26;3.50;79.80
72440;DHT22;60446;50.752;4.352;2023-02-01T08:43:56;3.50;79.80
72440;DHT22;60446;50.752;4.352;2023-02-01T08:46:24;3.50;79.90
72440;DHT22;60446;50.752;4.352;2023-02-01T08:48:51;3.60;79.60
72440;DHT22;60446;50.752;4.352;2023-02-01T08:51:20;3.70;79.40
72440;DHT22;60446;50.752;4.352;2023-02-01T08:53:49;3.70;79.80
72440;DHT22;60446;50.752;4.352;2023-02-01T08:56:18;3.70;79.30
72440;DHT22;60446;50.752;4.352;2023-02-01T08:58:45;3.70;79.40
72440;DHT22;60446;50.752;4.352;2023-02-01T09:01:14;3.80;79.20
72440;DHT22;60446;50.752;4.352;2023-02-01T09:03:43;3.80;79.30
72440;DHT22;60446;50.752;4.352;2023-02-01T09:06:13;3.80;79.50
72440;DHT22;60446;50.752;4.352;2023-02-01T09:08:42;3.90;79.60
72440;DHT22;60446;50.752;4.352;2023-02-01T09:11:16;3.90;79.20
72440;DHT22;60446;50.752;4.352;2023-02-01T09:13:44;3.90;79.40
72440;DHT22;60446;50.752;4.352;2023-02-01T09:16:11;4.00;79.40
72440;DHT22;60446;50.752;4.352;2023-02-01T09:18:39;4.00;79.10
72440;DHT22;60446;50.752;4.352;2023-02-01T09:21:22;4.10;78.30
72440;DHT22;60446;50.752;4.352;2023-02-01T09:23:51;4.10;78.70
72440;DHT22;60446;50.752;4.352;2023-02-01T09:26:18;4.10;78.70
72440;DHT22;60446;50.752;4.352;2023-02-01T09:28:56;4.20;78.30
72440;DHT22;60446;50.752;4.352;2023-02-01T09:31:24;4.30;79.00
72440;DHT22;60446;50.752;4.352;2023-02-01T09:33:51;4.40;78.30
72440;DHT22;60446;50.752;4.352;2023-02-01T09:36:18;4.40;78.40
72440;DHT22;60446;50.752;4.352;2023-02-01T09:38:46;4.50;78.10
72440;DHT22;60446;50.752;4.352;2023-02-01T09:41:42;4.50;78.10
72440;DHT22;60446;50.752;4.352;2023-02-01T09:44:53;4.60;77.20
72440;DHT22;60446;50.752;4.352;2023-02-01T09:47:26;4.70;77.20
72440;DHT22;60446;50.752;4.352;2023-02-01T09:50:05;4.80;76.40
72440;DHT22;60446;50.752;4.352;2023-02-01T09:52:45;4.90;77.10
72440;DHT22;60446;50.752;4.352;2023-02-01T09:55:40;5.00;75.90
72440;DHT22;60446;50.752;4.352;2023-02-01T10:01:15;5.20;74.60
72440;DHT22;60446;50.752;4.352;2023-02-01T10:03:46;5.20;75.40
72440;DHT22;60446;50.752;4.352;2023-02-01T10:27:20;5.90;72.40
72440;DHT22;60446;50.752;4.352;2023-02-01T10:29:56;5.90;72.20
72440;DHT22;60446;50.752;4.352;2023-02-01T10:32:34;6.00;71.80
72440;DHT22;60446;50.752;4.352;2023-02-01T10:35:15;6.00;71.60
72440;DHT22;60446;50.752;4.352;2023-02-01T10:37:45;6.10;71.30
72440;DHT22;60446;50.752;4.352;2023-02-01T10:40:24;6.10;71.80
72440;DHT22;60446;50.752;4.352;2023-02-01T10:43:00;6.20;70.70
72440;DHT22;60446;50.752;4.352;2023-02-01T10:45:33;6.20;70.60
72440;DHT22;60446;50.752;4.352;2023-02-01T10:48:03;6.20;71.30
72440;DHT22;60446;50.752;4.352;2023-02-01T10:50:49;6.30;70.30
72440;DHT22;60446;50.752;4.352;2023-02-01T10:53:25;6.40;70.30
72440;DHT22;60446;50.752;4.352;2023-02-01T10:55:56;6.40;69.90
72440;DHT22;60446;50.752;4.352;2023-02-01T10:58:30;6.50;69.90
72440;DHT22;60446;50.752;4.352;2023-02-01T11:01:04;6.60;69.70
72440;DHT22;60446;50.752;4.352;2023-02-01T11:03:38;6.80;69.50
72440;DHT22;60446;50.752;4.352;2023-02-01T11:06:28;6.90;70.00
72440;DHT22;60446;50.752;4.352;2023-02-01T11:09:01;7.10;69.70
72440;DHT22;60446;50.752;4.352;2023-02-01T11:14:39;7.50;67.70
72440;DHT22;60446;50.752;4.352;2023-02-01T11:17:17;7.60;67.30
72440;DHT22;60446;50.752;4.352;2023-02-01T11:20:04;7.70;66.70
72440;DHT22;60446;50.752;4.352;2023-02-01T11:22:35;7.80;65.20
72440;DHT22;60446;50.752;4.352;2023-02-01T11:25:09;7.80;66.00
72440;DHT22;60446;50.752;4.352;2023-02-01T11:27:38;7.70;65.30
72440;DHT22;60446;50.752;4.352;2023-02-01T11:30:41;7.80;65.10
72440;DHT22;60446;50.752;4.352;2023-02-01T11:33:18;7.80;66.80
72440;DHT22;60446;50.752;4.352;2023-02-01T11:35:48;8.00;64.20
72440;DHT22;60446;50.752;4.352;2023-02-01T11:38:29;8.20;64.00
72440;DHT22;60446;50.752;4.352;2023-02-01T11:43:53;8.30;61.90
72440;DHT22;60446;50.752;4.352;2023-02-01T11:46:34;8.40;62.90
72440;DHT22;60446;50.752;4.352;2023-02-01T11:49:21;8.50;62.90
72440;DHT22;60446;50.752;4.352;2023-02-01T11:55:18;8.60;61.00
72440;DHT22;60446;50.752;4.352;2023-02-01T11:58:01;8.50;61.30
72440;DHT22;60446;50.752;4.352;2023-02-01T12:07:20;8.50;61.40
72440;DHT22;60446;50.752;4.352;2023-02-01T12:10:18;8.60;60.40
72440;DHT22;60446;50.752;4.352;2023-02-01T12:16:35;8.50;60.40
72440;DHT22;60446;50.752;4.352;2023-02-01T12:42:59;8.10;60.30
72440;DHT22;60446;50.752;4.352;2023-02-01T12:45:40;8.20;59.80
72440;DHT22;60446;50.752;4.352;2023-02-01T12:51:36;8.30;60.10
72440;DHT22;60446;50.752;4.352;2023-02-01T12:54:10;8.40;61.10
72440;DHT22;60446;50.752;4.352;2023-02-01T12:57:02;8.50;59.60
72440;DHT22;60446;50.752;4.352;2023-02-01T12:59:36;8.60;59.00
72440;DHT22;60446;50.752;4.352;2023-02-01T13:02:30;8.60;59.30
72440;DHT22;60446;50.752;4.352;2023-02-01T13:05:18;8.70;57.70
72440;DHT22;60446;50.752;4.352;2023-02-01T13:10:50;8.90;58.00
72440;DHT22;60446;50.752;4.352;2023-02-01T13:13:33;9.00;59.10
72440;DHT22;60446;50.752;4.352;2023-02-01T13:19:27;9.10;59.20
72440;DHT22;60446;50.752;4.352;2023-02-01T13:22:15;9.20;59.30
72440;DHT22;60446;50.752;4.352;2023-02-01T13:25:20;9.30;57.20
72440;DHT22;60446;50.752;4.352;2023-02-01T13:28:51;9.30;57.40
72440;DHT22;60446;50.752;4.352;2023-02-01T13:42:57;9.40;57.60
72440;DHT22;60446;50.752;4.352;2023-02-01T13:45:30;9.40;57.70
72440;DHT22;60446;50.752;4.352;2023-02-01T13:48:02;9.30;57.40
72440;DHT22;60446;50.752;4.352;2023-02-01T13:50:34;9.40;57.40
72440;DHT22;60446;50.752;4.352;2023-02-01T13:55:59;9.30;57.10
72440;DHT22;60446;50.752;4.352;2023-02-01T13:58:38;9.20;56.90
72440;DHT22;60446;50.752;4.352;2023-02-01T14:03:57;9.20;57.60
72440;DHT22;60446;50.752;4.352;2023-02-01T14:06:38;9.20;57.70
72440;DHT22;60446;50.752;4.352;2023-02-01T14:19:27;9.40;58.80
72440;DHT22;60446;50.752;4.352;2023-02-01T14:22:00;9.50;58.30
72440;DHT22;60446;50.752;4.352;2023-02-01T14:24:55;9.60;57.90
72440;DHT22;60446;50.752;4.352;2023-02-01T14:27:27;9.60;57.90
72440;DHT22;60446;50.752;4.352;2023-02-01T14:30:02;9.60;58.80
72440;DHT22;60446;50.752;4.352;2023-02-01T14:32:39;9.50;57.70
72440;DHT22;60446;50.752;4.352;2023-02-01T14:35:19;9.50;58.80
72440;DHT22;60446;50.752;4.352;2023-02-01T14:37:52;9.20;58.70
72440;DHT22;60446;50.752;4.352;2023-02-01T14:40:27;9.20;58.60
72440;DHT22;60446;50.752;4.352;2023-02-01T14:42:55;9.10;59.40
72440;DHT22;60446;50.752;4.352;2023-02-01T14:45:47;9.10;60.00
72440;DHT22;60446;50.752;4.352;2023-02-01T14:51:06;9.00;60.10
72440;DHT22;60446;50.752;4.352;2023-02-01T14:53:34;9.00;60.20
72440;DHT22;60446;50.752;4.352;2023-02-01T14:59:00;9.00;61.20
72440;DHT22;60446;50.752;4.352;2023-02-01T15:01:33;8.90;59.40
72440;DHT22;60446;50.752;4.352;2023-02-01T15:04:06;8.80;59.60
72440;DHT22;60446;50.752;4.352;2023-02-01T15:07:04;8.80;60.00
72440;DHT22;60446;50.752;4.352;2023-02-01T15:09:37;8.70;59.70
72440;DHT22;60446;50.752;4.352;2023-02-01T15:14:45;8.50;59.90
72440;DHT22;60446;50.752;4.352;2023-02-01T15:17:28;8.40;60.20
72440;DHT22;60446;50.752;4.352;2023-02-01T15:20:16;8.40;60.10
72440;DHT22;60446;50.752;4.352;2023-02-01T15:23:03;8.30;60.10
72440;DHT22;60446;50.752;4.352;2023-02-01T15:25:37;8.30;60.40
72440;DHT22;60446;50.752;4.352;2023-02-01T15:28:08;8.30;60.50
72440;DHT22;60446;50.752;4.352;2023-02-01T15:30:40;8.20;61.10
72440;DHT22;60446;50.752;4.352;2023-02-01T15:33:22;8.20;61.80
72440;DHT22;60446;50.752;4.352;2023-02-01T15:36:10;8.20;62.10
72440;DHT22;60446;50.752;4.352;2023-02-01T15:38:44;8.20;62.70
72440;DHT22;60446;50.752;4.352;2023-02-01T15:41:18;8.20;62.90
72440;DHT22;60446;50.752;4.352;2023-02-01T15:46:45;8.10;63.10
72440;DHT22;60446;50.752;4.352;2023-02-01T15:49:47;8.10;63.40
72440;DHT22;60446;50.752;4.352;2023-02-01T15:52:36;8.10;63.20
72440;DHT22;60446;50.752;4.352;2023-02-01T15:55:18;8.10;63.00
72440;DHT22;60446;50.752;4.352;2023-02-01T15:57:52;8.00;62.90
72440;DHT22;60446;50.752;4.352;2023-02-01T16:00:25;8.10;63.40
72440;DHT22;60446;50.752;4.352;2023-02-01T16:02:57;8.00;63.40
72440;DHT22;60446;50.752;4.352;2023-02-01T16:10:41;8.10;63.90
72440;DHT22;60446;50.752;4.352;2023-02-01T16:13:14;8.00;63.30
72440;DHT22;60446;50.752;4.352;2023-02-01T16:15:42;8.00;63.00
72440;DHT22;60446;50.752;4.352;2023-02-01T16:18:13;8.00;63.40
72440;DHT22;60446;50.752;4.352;2023-02-01T16:20:45;8.00;62.80
72440;DHT22;60446;50.752;4.352;2023-02-01T16:23:14;8.00;63.00
72440;DHT22;60446;50.752;4.352;2023-02-01T16:25:42;8.00;62.90
72440;DHT22;60446;50.752;4.352;2023-02-01T16:28:09;7.90;63.70
72440;DHT22;60446;50.752;4.352;2023-02-01T16:30:36;7.90;63.90
72440;DHT22;60446;50.752;4.352;2023-02-01T16:33:04;7.90;63.80
72440;DHT22;60446;50.752;4.352;2023-02-01T16:35:36;7.90;63.50
72440;DHT22;60446;50.752;4.352;2023-02-01T16:38:05;7.90;63.80
72440;DHT22;60446;50.752;4.352;2023-02-01T16:40:40;7.80;64.10
72440;DHT22;60446;50.752;4.352;2023-02-01T16:43:18;7.80;63.70
72440;DHT22;60446;50.752;4.352;2023-02-01T16:45:59;7.80;64.80
72440;DHT22;60446;50.752;4.352;2023-02-01T16:48:45;7.80;64.10
72440;DHT22;60446;50.752;4.352;2023-02-01T16:54:28;7.70;64.30
72440;DHT22;60446;50.752;4.352;2023-02-01T16:56:56;7.70;64.80
72440;DHT22;60446;50.752;4.352;2023-02-01T16:59:44;7.70;65.50
72440;DHT22;60446;50.752;4.352;2023-02-01T17:02:14;7.80;64.80
72440;DHT22;60446;50.752;4.352;2023-02-01T17:04:43;7.80;64.50
72440;DHT22;60446;50.752;4.352;2023-02-01T17:07:17;7.80;64.80
72440;DHT22;60446;50.752;4.352;2023-02-01T17:09:47;7.80;65.30
72440;DHT22;60446;50.752;4.352;2023-02-01T17:12:24;7.70;65.40
72440;DHT22;60446;50.752;4.352;2023-02-01T17:14:53;7.70;65.40
72440;DHT22;60446;50.752;4.352;2023-02-01T17:17:21;7.60;65.40
72440;DHT22;60446;50.752;4.352;2023-02-01T17:20:07;7.60;65.90
72440;DHT22;60446;50.752;4.352;2023-02-01T17:22:50;7.70;66.00
72440;DHT22;60446;50.752;4.352;2023-02-01T17:25:31;7.60;66.30
72440;DHT22;60446;50.752;4.352;2023-02-01T17:27:59;7.60;67.50
72440;DHT22;60446;50.752;4.352;2023-02-01T17:30:39;7.60;67.20
72440;DHT22;60446;50.752;4.352;2023-02-01T17:33:33;7.60;68.00
72440;DHT22;60446;50.752;4.352;2023-02-01T17:36:05;7.50;68.70
72440;DHT22;60446;50.752;4.352;2023-02-01T17:38:38;7.50;68.20
72440;DHT22;60446;50.752;4.352;2023-02-01T17:41:06;7.50;68.60
72440;DHT22;60446;50.752;4.352;2023-02-01T17:43:36;7.50;68.50
72440;DHT22;60446;50.752;4.352;2023-02-01T17:46:13;7.50;68.90
72440;DHT22;60446;50.752;4.352;2023-02-01T17:48:42;7.40;69.40
72440;DHT22;60446;50.752;4.352;2023-02-01T17:51:16;7.40;69.30
72440;DHT22;60446;50.752;4.352;2023-02-01T17:53:45;7.40;70.10
72440;DHT22;60446;50.752;4.352;2023-02-01T17:56:15;7.40;69.50
72440;DHT22;60446;50.752;4.352;2023-02-01T17:58:46;7.40;69.30
72440;DHT22;60446;50.752;4.352;2023-02-01T18:01:48;7.40;69.70
72440;DHT22;60446;50.752;4.352;2023-02-01T18:04:18;7.30;69.90
72440;DHT22;60446;50.752;4.352;2023-02-01T18:06:50;7.40;69.80
72440;DHT22;60446;50.752;4.352;2023-02-01T18:09:30;7.40;69.80
72440;DHT22;60446;50.752;4.352;2023-02-01T18:12:22;7.40;69.60
72440;DHT22;60446;50.752;4.352;2023-02-01T18:15:23;7.40;69.80
72440;DHT22;60446;50.752;4.352;2023-02-01T18:18:01;7.40;70.00
72440;DHT22;60446;50.752;4.352;2023-02-01T18:20:50;7.30;70.50
72440;DHT22;60446;50.752;4.352;2023-02-01T18:23:33;7.30;70.30
72440;DHT22;60446;50.752;4.352;2023-02-01T18:26:13;7.30;70.80
72440;DHT22;60446;50.752;4.352;2023-02-01T18:28:49;7.30;71.20
72440;DHT22;60446;50.752;4.352;2023-02-01T18:31:40;7.30;71.00
72440;DHT22;60446;50.752;4.352;2023-02-01T18:34:30;7.30;70.90
72440;DHT22;60446;50.752;4.352;2023-02-01T18:37:34;7.30;71.10
72440;DHT22;60446;50.752;4.352;2023-02-01T18:40:32;7.30;71.60
72440;DHT22;60446;50.752;4.352;2023-02-01T18:43:13;7.20;72.00
72440;DHT22;60446;50.752;4.352;2023-02-01T18:45:46;7.10;71.80
72440;DHT22;60446;50.752;4.352;2023-02-01T18:48:19;7.10;72.10
72440;DHT22;60446;50.752;4.352;2023-02-01T18:51:24;7.20;72.10
72440;DHT22;60446;50.752;4.352;2023-02-01T18:54:04;7.10;72.70
72440;DHT22;60446;50.752;4.352;2023-02-01T18:56:36;7.10;72.30
72440;DHT22;60446;50.752;4.352;2023-02-01T18:59:08;7.10;72.60
72440;DHT22;60446;50.752;4.352;2023-02-01T19:01:46;7.10;72.70
72440;DHT22;60446;50.752;4.352;2023-02-01T19:04:23;7.10;72.70
72440;DHT22;60446;50.752;4.352;2023-02-01T19:07:02;7.10;73.00
72440;DHT22;60446;50.752;4.352;2023-02-01T19:09:43;7.10;73.20
72440;DHT22;60446;50.752;4.352;2023-02-01T19:12:16;7.00;73.30
72440;DHT22;60446;50.752;4.352;2023-02-01T19:14:46;7.00;73.40
72440;DHT22;60446;50.752;4.352;2023-02-01T19:17:39;7.00;73.90
72440;DHT22;60446;50.752;4.352;2023-02-01T19:20:23;6.90;73.90
72440;DHT22;60446;50.752;4.352;2023-02-01T19:23:18;6.90;74.00
72440;DHT22;60446;50.752;4.352;2023-02-01T19:25:49;7.00;74.30
72440;DHT22;60446;50.752;4.352;2023-02-01T19:28:27;6.90;74.50
72440;DHT22;60446;50.752;4.352;2023-02-01T19:31:05;6.90;74.40
72440;DHT22;60446;50.752;4.352;2023-02-01T19:33:43;6.90;74.20
72440;DHT22;60446;50.752;4.352;2023-02-01T19:36:27;6.90;74.30
72440;DHT22;60446;50.752;4.352;2023-02-01T19:39:11;7.00;74.50
72440;DHT22;60446;50.752;4.352;2023-02-01T19:41:49;7.00;74.40
72440;DHT22;60446;50.752;4.352;2023-02-01T19:44:44;7.00;74.40